Dirección General De Aeronáutica Civil

Dirección Meteorológica de Chile - Servicios Climáticos

Informe General de Control de Calidad de la Estación

Listado de niveles de control de calidad para algunos parámetros
Estación Retiro Copihue (360047)
Fecha de Revisión de los datos :

Elementos

Registros Niveles de Control Total
Nivel 0 Nivel 1 Nivel 2 Nivel 3 Errores Porcentaje
01 Temperatura del Aire Seco 55.863 0 . 0 . 0 . 0 . 0 0.00 %
02 Temperatura de Rocío 55.892 0 . 0 . 0 . 0 . 0 0.00 %
03 Humedad Relativa del Aire 56.092 0 . 0 . 0 . 0 . 0 0.00 %
04 Temperatura Máxima PM 2.343 0 . 0 . 33 1.41 % 0 . 33 1.41 %
05 Temperatura Mínima AM 2.317 0 . 0 . 22 0.95 % 0 . 22 0.95 %
06 Viento a 10 m. de Altura 56.076 0 . 0 . 0 . 0 . 0 0.00 %
07 Agua Caida, Acumulada 6 Horas 9.349 0 . 0 . 0 . 0 . 0 0.00 %
08 Presión Atm. a Nivel de Estación (QFE) 55.726 0 . 0 . 0 . 0 . 0 0.00 %
09 Presión Atm. a Nivel Medio del Mar (QFF) 55.726 0 . 0 . 0 . 0 . 0 0.00 %
10 Presión Atm. Estándar OACI (QNH) 55.726 0 . 0 . 0 . 0 . 0 0.00 %

Totales

405.110 . 0.0000 % . 0.0000 % . 0.0136 % . 0.0000 % 55 0.0136 %

Detalle de Errores Encontrados

Nivel Fecha del Dato Descripción Información Error Fecha Ingreso
2 2019-06-13 12:00:00 Temperatura 6.8 del 13-06-2019 12:00, Menor que la Mínima 10.0 13-06-2019 12:00 6.8 -- 10.0 2019-06-13 13:10:00
2 2020-05-19 12:00:00 Temperatura 9.5 del 19-05-2020 03:00, Menor que la Mínima 10.8 19-05-2020 12:00 9.5 -- 10.8 2020-05-19 12:20:00
2 2020-06-04 12:00:00 Temperatura -1.1 del 04-06-2020 05:00, Menor que la Mínima 4.1 04-06-2020 12:00 -1.1 -- 4.1 2020-06-04 12:20:00
2 2020-06-06 12:00:00 Temperatura -0.8 del 06-06-2020 05:00, Menor que la Mínima 0.1 06-06-2020 12:00 -0.8 -- 0.1 2020-06-06 12:41:00
2 2020-06-07 12:00:00 Temperatura 6.2 del 07-06-2020 09:00, Menor que la Mínima 6.6 07-06-2020 12:00 6.2 -- 6.6 2020-06-07 12:20:00
2 2020-10-16 12:00:00 Temperatura 9.2 del 16-10-2020 08:00, Menor que la Mínima 10.9 16-10-2020 12:00 9.2 -- 10.9 2020-10-16 12:20:00
2 2020-10-17 12:00:00 Temperatura 6.7 del 17-10-2020 05:00, Menor que la Mínima 9.2 17-10-2020 12:00 6.7 -- 9.2 2020-10-17 12:24:00
2 2020-10-30 12:00:00 Temperatura 7.7 del 30-10-2020 06:00, Menor que la Mínima 8.9 30-10-2020 12:00 7.7 -- 8.9 2020-10-30 12:20:00
2 2020-11-03 12:00:00 Temperatura 8.5 del 03-11-2020 08:00, Menor que la Mínima 9.3 03-11-2020 12:00 8.5 -- 9.3 2020-11-03 12:20:00
2 2021-09-15 12:00:00 Temperatura 3.4 del 15-09-2021 07:00, Menor que la Mínima 3.5 15-09-2021 12:00 3.4 -- 3.5 2021-09-15 12:20:00
2 2022-09-16 12:00:00 Temperatura 6.0 del 16-09-2022 07:00, Menor que la Mínima 6.7 16-09-2022 12:00 6.0 -- 6.7 2022-09-16 12:10:00
2 2022-10-05 12:00:00 Temperatura 5.2 del 05-10-2022 07:00, Menor que la Mínima 7.3 05-10-2022 12:00 5.2 -- 7.3 2022-10-05 12:10:00
2 2022-10-20 12:00:00 Temperatura 8.4 del 20-10-2022 04:00, Menor que la Mínima 10.2 20-10-2022 12:00 8.4 -- 10.2 2022-10-20 12:09:00
2 2022-12-07 12:00:00 Temperatura 7.8 del 07-12-2022 09:00, Menor que la Mínima 14.4 07-12-2022 12:00 7.8 -- 14.4 2022-12-07 13:50:00
2 2023-06-29 12:00:00 Temperatura -0.3 del 29-06-2023 11:00, Menor que la Mínima 0.3 29-06-2023 12:00 -0.3 -- 0.3 2023-06-29 12:09:00
2 2023-06-30 12:00:00 Temperatura 3.2 del 30-06-2023 02:00, Menor que la Mínima 4.2 30-06-2023 12:00 3.2 -- 4.2 2023-06-30 12:08:00
2 2023-07-02 12:00:00 Temperatura 7.1 del 02-07-2023 02:00, Menor que la Mínima 10.7 02-07-2023 12:00 7.1 -- 10.7 2023-07-02 12:09:00
2 2023-07-03 12:00:00 Temperatura 10.2 del 03-07-2023 11:00, Menor que la Mínima 10.4 03-07-2023 12:00 10.2 -- 10.4 2023-07-03 12:08:00
2 2023-07-04 12:00:00 Temperatura 6.3 del 04-07-2023 04:00, Menor que la Mínima 10.1 04-07-2023 12:00 6.3 -- 10.1 2023-07-04 12:08:00
2 2023-07-09 12:00:00 Temperatura 2.8 del 09-07-2023 11:00, Menor que la Mínima 3.1 09-07-2023 12:00 2.8 -- 3.1 2023-07-10 08:09:00
2 2023-07-10 12:00:00 Temperatura 2.5 del 10-07-2023 06:00, Menor que la Mínima 8.2 10-07-2023 12:00 2.5 -- 8.2 2023-07-11 08:09:00
2 2024-01-08 12:00:00 Temperatura 10.4 del 08-01-2024 10:00, Menor que la Mínima 12.9 08-01-2024 12:00 10.4 -- 12.9 2024-01-09 12:50:00
2 2020-05-20 00:00:00 Temperatura 13.2 del 19-05-2020 17:00, Mayor que la Máxima 12.8 20-05-2020 00:00 13.2 -- 12.8 2020-05-20 00:20:00
2 2020-06-03 00:00:00 Temperatura 11.5 del 02-06-2020 19:00, Mayor que la Máxima 9.8 03-06-2020 00:00 11.5 -- 9.8 2020-06-03 01:51:00
2 2020-06-05 00:00:00 Temperatura 13.7 del 04-06-2020 19:00, Mayor que la Máxima 8.9 05-06-2020 00:00 13.7 -- 8.9 2020-06-05 03:11:00
2 2020-06-06 00:00:00 Temperatura 14.1 del 05-06-2020 19:00, Mayor que la Máxima 6.3 06-06-2020 00:00 14.1 -- 6.3 2020-06-06 00:51:00
2 2020-06-07 00:00:00 Temperatura 10.8 del 06-06-2020 19:00, Mayor que la Máxima 9.1 07-06-2020 00:00 10.8 -- 9.1 2020-06-07 00:20:00
2 2020-06-08 00:00:00 Temperatura 11.7 del 07-06-2020 19:00, Mayor que la Máxima 9.5 08-06-2020 00:00 11.7 -- 9.5 2020-06-08 00:20:00
2 2020-10-16 00:00:00 Temperatura 27.4 del 15-10-2020 21:00, Mayor que la Máxima 26.3 16-10-2020 00:00 27.4 -- 26.3 2020-10-16 00:20:00
2 2020-10-27 00:00:00 Temperatura 20.2 del 26-10-2020 20:00, Mayor que la Máxima 19.5 27-10-2020 00:00 20.2 -- 19.5 2020-10-27 00:20:00
2 2020-10-29 00:00:00 Temperatura 18.9 del 28-10-2020 19:00, Mayor que la Máxima 18.7 29-10-2020 00:00 18.9 -- 18.7 2020-10-29 00:20:00
2 2020-10-30 00:00:00 Temperatura 23.5 del 29-10-2020 21:00, Mayor que la Máxima 23.1 30-10-2020 00:00 23.5 -- 23.1 2020-10-30 00:20:00
2 2020-10-31 00:00:00 Temperatura 28.4 del 30-10-2020 21:00, Mayor que la Máxima 27.6 31-10-2020 00:00 28.4 -- 27.6 2020-10-31 00:20:00
2 2020-11-02 00:00:00 Temperatura 26.0 del 01-11-2020 20:00, Mayor que la Máxima 24.9 02-11-2020 00:00 26.0 -- 24.9 2020-11-02 00:20:00
2 2020-11-05 00:00:00 Temperatura 21.2 del 04-11-2020 18:00, Mayor que la Máxima 20.8 05-11-2020 00:00 21.2 -- 20.8 2020-11-05 00:20:00
2 2021-09-02 00:00:00 Temperatura 18.4 del 01-09-2021 20:00, Mayor que la Máxima 18.1 02-09-2021 00:00 18.4 -- 18.1 2021-09-02 00:20:00
2 2021-10-17 00:00:00 Temperatura 19.3 del 16-10-2021 20:00, Mayor que la Máxima 16.4 17-10-2021 00:00 19.3 -- 16.4 2021-10-17 00:20:00
2 2021-11-11 00:00:00 Temperatura 24.1 del 10-11-2021 20:00, Mayor que la Máxima 21.4 11-11-2021 00:00 24.1 -- 21.4 2021-11-11 00:20:00
2 2022-06-15 00:00:00 Temperatura 11.4 del 14-06-2022 19:00, Mayor que la Máxima 10.3 15-06-2022 00:00 11.4 -- 10.3 2022-06-15 15:21:00
2 2022-08-23 00:00:00 Temperatura 11.4 del 22-08-2022 19:00, Mayor que la Máxima 10.9 23-08-2022 00:00 11.4 -- 10.9 2022-08-23 00:10:00
2 2022-10-09 00:00:00 Temperatura 16.8 del 08-10-2022 20:00, Mayor que la Máxima 11.6 09-10-2022 00:00 16.8 -- 11.6 2022-10-09 00:35:00
2 2023-04-29 00:00:00 Temperatura 16.6 del 28-04-2023 18:00, Mayor que la Máxima 14.6 29-04-2023 00:00 16.6 -- 14.6 2023-04-29 00:08:00
2 2023-06-21 00:00:00 Temperatura 13.9 del 20-06-2023 19:00, Mayor que la Máxima 13.2 21-06-2023 00:00 13.9 -- 13.2 2023-06-21 00:08:00
2 2023-06-28 00:00:00 Temperatura 15.2 del 27-06-2023 20:00, Mayor que la Máxima 8.8 28-06-2023 00:00 15.2 -- 8.8 2023-06-28 00:09:00
2 2023-06-29 00:00:00 Temperatura 9.3 del 28-06-2023 19:00, Mayor que la Máxima 6.2 29-06-2023 00:00 9.3 -- 6.2 2023-06-29 00:09:00
2 2023-06-30 00:00:00 Temperatura 12.4 del 29-06-2023 19:00, Mayor que la Máxima 5.8 30-06-2023 00:00 12.4 -- 5.8 2023-06-30 00:09:00
2 2023-07-01 00:00:00 Temperatura 17.7 del 30-06-2023 20:00, Mayor que la Máxima 12.3 01-07-2023 00:00 17.7 -- 12.3 2023-07-01 00:08:00
2 2023-07-02 00:00:00 Temperatura 13.8 del 01-07-2023 19:00, Mayor que la Máxima 10.0 02-07-2023 00:00 13.8 -- 10.0 2023-07-02 00:09:00
2 2023-07-03 00:00:00 Temperatura 11.1 del 02-07-2023 19:00, Mayor que la Máxima 10.6 03-07-2023 00:00 11.1 -- 10.6 2023-07-03 00:09:00
2 2023-07-04 00:00:00 Temperatura 14.4 del 03-07-2023 20:00, Mayor que la Máxima 9.7 04-07-2023 00:00 14.4 -- 9.7 2023-07-04 00:08:00
2 2023-07-05 00:00:00 Temperatura 11.2 del 04-07-2023 20:00, Mayor que la Máxima 11.0 05-07-2023 00:00 11.2 -- 11.0 2023-07-05 00:08:00
2 2023-07-06 00:00:00 Temperatura 13.3 del 05-07-2023 18:00, Mayor que la Máxima 10.6 06-07-2023 00:00 13.3 -- 10.6 2023-07-06 00:09:00
2 2023-07-08 00:00:00 Temperatura 10.8 del 07-07-2023 23:00, Mayor que la Máxima 10.7 08-07-2023 00:00 10.8 -- 10.7 2023-07-08 20:08:00
2 2023-07-11 00:00:00 Temperatura 13.5 del 10-07-2023 21:00, Mayor que la Máxima 12.0 11-07-2023 00:00 13.5 -- 12.0 2023-07-11 20:08:00
2 2023-09-01 00:00:00 Temperatura 10.6 del 31-08-2023 16:00, Mayor que la Máxima 8.9 01-09-2023 00:00 10.6 -- 8.9 2023-09-01 00:09:00
Errores del Nivel 55
Informe generado el 13-07-2024 03:09
Requerimiento: RE6001